createdAt,value
2023-05-08T00:01:30.442Z,99717.44
2023-05-08T00:04:22.438Z,99720.15
2023-05-08T00:07:14.299Z,99723.55
2023-05-08T00:10:07.220Z,99724.21
2023-05-08T00:12:59.556Z,99727.02
2023-05-08T00:15:51.579Z,99730.34
2023-05-08T00:18:43.589Z,99729.46
2023-05-08T00:21:35.575Z,99729.95
2023-05-08T00:24:27.554Z,99729.52
2023-05-08T00:27:19.512Z,99730.65
2023-05-08T00:30:13.361Z,99733.05
2023-05-08T00:33:05.661Z,99736.20
2023-05-08T00:36:02.954Z,99740.23
2023-05-08T00:38:55.024Z,99738.92
2023-05-08T00:41:47.046Z,99740.80
2023-05-08T00:44:40.179Z,99740.45
2023-05-08T00:47:32.761Z,99737.59
2023-05-08T00:50:24.842Z,99741.95
2023-05-08T00:53:17.473Z,99743.49
2023-05-08T00:56:13.626Z,99741.45
2023-05-08T00:59:08.987Z,99741.73
2023-05-08T01:02:01.645Z,99737.91
2023-05-08T01:04:55.930Z,99732.17
2023-05-08T01:07:48.027Z,99730.07
2023-05-08T01:10:49.137Z,99736.78
2023-05-08T01:13:53.224Z,99737.39
2023-05-08T01:16:52.335Z,99742.83
2023-05-08T01:20:01.785Z,99739.86
2023-05-08T01:23:26.074Z,99745.38
2023-05-08T01:26:51.919Z,99750.91
2023-05-08T01:30:28.545Z,99749.91
2023-05-08T01:33:28.011Z,99755.60
2023-05-08T01:36:30.335Z,99756.14
2023-05-08T01:39:36.670Z,99760.14
2023-05-08T01:42:37.263Z,99756.77
2023-05-08T01:45:36.776Z,99756.56
2023-05-08T01:48:33.885Z,99758.88
2023-05-08T01:51:26.559Z,99758.41
2023-05-08T01:54:22.731Z,99756.08
2023-05-08T01:57:16.039Z,99756.55
2023-05-08T02:00:10.443Z,99756.77
2023-05-08T02:03:03.662Z,99753.75
2023-05-08T02:06:00.496Z,99758.09
2023-05-08T02:08:54.482Z,99756.59
2023-05-08T02:11:48.457Z,99759.48
2023-05-08T02:14:41.281Z,99764.09
2023-05-08T02:17:34.718Z,99763.97
2023-05-08T02:20:28.865Z,99772.79
2023-05-08T02:23:21.994Z,99771.50
2023-05-08T02:26:16.233Z,99768.95
2023-05-08T02:29:06.981Z,99769.77
2023-05-08T02:32:01.641Z,99772.48
2023-05-08T02:35:02.993Z,99773.83
2023-05-08T02:37:57.482Z,99776.31
2023-05-08T02:40:55.247Z,99778.05
2023-05-08T02:43:47.854Z,99776.89
2023-05-08T02:46:48.979Z,99778.52
2023-05-08T02:49:50.148Z,99778.39
2023-05-08T02:52:46.842Z,99777.02
2023-05-08T02:55:45.091Z,99773.04
2023-05-08T02:58:45.617Z,99777.96
2023-05-08T03:01:45.452Z,99774.19
2023-05-08T03:04:43.284Z,99775.95
2023-05-08T03:07:37.517Z,99775.67
2023-05-08T03:10:30.669Z,99775.40
2023-05-08T03:13:24.026Z,99775.86
2023-05-08T03:16:21.694Z,99773.62
2023-05-08T03:19:23.620Z,99776.21
2023-05-08T03:22:17.501Z,99780.45
2023-05-08T03:25:14.019Z,99780.94
2023-05-08T03:28:07.110Z,99786.73
2023-05-08T03:31:00.737Z,99785.52
2023-05-08T03:33:55.591Z,99787.15
2023-05-08T03:36:49.289Z,99790.61
2023-05-08T03:39:41.478Z,99788.59
2023-05-08T03:42:33.703Z,99789.62
2023-05-08T03:45:26.086Z,99789.91
2023-05-08T03:48:20.126Z,99797.37
2023-05-08T03:51:12.314Z,99797.56
2023-05-08T03:54:04.286Z,99799.70
2023-05-08T03:56:56.965Z,99801.70
2023-05-08T04:00:01.462Z,99797.16
2023-05-08T04:03:07.945Z,99799.07
2023-05-08T04:06:08.100Z,99797.09
2023-05-08T04:09:06.741Z,99797.68
2023-05-08T04:12:06.247Z,99799.64
2023-05-08T04:15:02.419Z,99800.98
2023-05-08T04:17:58.460Z,99801.15
2023-05-08T04:20:52.762Z,99801.17
2023-05-08T04:23:43.634Z,99805.79
2023-05-08T04:26:36.203Z,99809.79
2023-05-08T04:29:28.308Z,99824.08
2023-05-08T04:32:21.880Z,99823.29
2023-05-08T04:35:14.843Z,99829.71
2023-05-08T04:38:07.110Z,99828.86
2023-05-08T04:40:59.167Z,99836.30
2023-05-08T04:43:51.639Z,99839.45
2023-05-08T04:46:43.592Z,99841.91
2023-05-08T04:49:35.558Z,99846.55
2023-05-08T04:52:27.690Z,99855.89
2023-05-08T04:55:19.724Z,99855.45
2023-05-08T04:58:12.857Z,99858.60
2023-05-08T05:01:06.309Z,99861.00
2023-05-08T05:03:58.570Z,99862.94
2023-05-08T05:06:50.587Z,99866.77
2023-05-08T05:09:42.598Z,99875.88
2023-05-08T05:12:34.549Z,99880.27
2023-05-08T05:15:26.503Z,99881.08
2023-05-08T05:18:19.264Z,99879.44
2023-05-08T05:21:11.900Z,99884.20
2023-05-08T05:24:03.969Z,99883.73
2023-05-08T05:26:56.044Z,99885.83
2023-05-08T05:29:48.123Z,99891.77
2023-05-08T05:32:40.206Z,99889.98
2023-05-08T05:35:32.325Z,99891.05
2023-05-08T05:38:05.359Z,99890.63
2023-05-08T05:40:57.466Z,99899.89
2023-05-08T05:43:49.656Z,99897.95
2023-05-08T05:46:44.099Z,99902.59
2023-05-08T05:49:26.476Z,99910.52
2023-05-08T05:52:18.475Z,99916.36
2023-05-08T05:55:11.588Z,99915.83
2023-05-08T05:58:03.959Z,99917.95
2023-05-08T06:00:55.917Z,99922.94
2023-05-08T06:03:48.391Z,99923.84
2023-05-08T06:06:40.489Z,99931.82
2023-05-08T06:09:32.466Z,99936.25
2023-05-08T06:12:24.650Z,99944.48
2023-05-08T06:15:16.706Z,99950.02
2023-05-08T06:18:09.035Z,99946.54
2023-05-08T06:21:01.489Z,99949.11
2023-05-08T06:23:53.507Z,99947.52
2023-05-08T06:26:46.550Z,99953.66
2023-05-08T06:29:38.518Z,99948.13
2023-05-08T06:32:15.696Z,99953.45
2023-05-08T06:35:08.947Z,99954.24
2023-05-08T06:38:01.428Z,99958.41
2023-05-08T06:40:54.013Z,99964.52
2023-05-08T06:43:46.033Z,99963.27
2023-05-08T06:46:38.109Z,99956.45
2023-05-08T06:49:30.634Z,99949.79
2023-05-08T06:52:24.475Z,99947.07
2023-05-08T06:55:16.733Z,99950.34
2023-05-08T06:58:02.191Z,99952.03
2023-05-08T07:00:54.327Z,99957.85
2023-05-08T07:03:46.362Z,99957.98
2023-05-08T07:06:38.489Z,99959.23
2023-05-08T07:09:30.530Z,99956.52
2023-05-08T07:12:22.677Z,99958.55
2023-05-08T07:15:25.446Z,99957.55
2023-05-08T07:18:18.301Z,99962.80
2023-05-08T07:21:10.623Z,99970.05
2023-05-08T07:24:02.784Z,99971.98
2023-05-08T07:26:54.851Z,99977.02
2023-05-08T07:29:46.893Z,99968.41
2023-05-08T07:32:39.687Z,99968.57
2023-05-08T07:35:31.837Z,99967.10
2023-05-08T07:38:23.781Z,99969.15
2023-05-08T07:41:16.134Z,99971.30
2023-05-08T07:44:08.436Z,99970.25
2023-05-08T07:47:00.534Z,99973.91
2023-05-08T07:49:52.653Z,99972.82
2023-05-08T07:52:44.617Z,99979.88
2023-05-08T07:55:36.700Z,99979.33
2023-05-08T07:58:28.748Z,99980.89
2023-05-08T08:01:21.060Z,99980.13
2023-05-08T08:04:15.307Z,99970.13
2023-05-08T08:07:07.584Z,99972.02
2023-05-08T08:09:59.557Z,99974.15
2023-05-08T08:12:51.668Z,99966.10
2023-05-08T08:15:44.691Z,99969.03
2023-05-08T08:18:38.086Z,99968.27
2023-05-08T08:21:31.068Z,99963.13
2023-05-08T08:24:23.985Z,99960.46
2023-05-08T08:27:16.030Z,99959.33
2023-05-08T08:30:17.733Z,99966.21
2023-05-08T08:32:53.075Z,99966.36
2023-05-08T08:35:45.130Z,99959.46
2023-05-08T08:38:37.114Z,99961.73
2023-05-08T08:41:29.173Z,99958.39
2023-05-08T08:44:21.345Z,99961.71
2023-05-08T08:47:15.854Z,99961.79
2023-05-08T08:50:14.258Z,99965.14
2023-05-08T08:53:12.289Z,99968.02
2023-05-08T08:56:06.546Z,99965.42
2023-05-08T08:59:00.205Z,99962.48
2023-05-08T09:01:56.150Z,99970.80
2023-05-08T09:04:50.606Z,99965.23
2023-05-08T09:07:43.869Z,99970.27
2023-05-08T09:10:37.422Z,99977.50
2023-05-08T09:13:12.443Z,99975.12
2023-05-08T09:16:05.283Z,99969.50
2023-05-08T09:18:57.497Z,99971.28
2023-05-08T09:21:49.904Z,99963.77
2023-05-08T09:25:02.206Z,99963.65
2023-05-08T09:27:54.157Z,99962.53
2023-05-08T09:30:53.625Z,99960.42
2023-05-08T09:33:47.582Z,99963.17
2023-05-08T09:36:40.616Z,99964.05
2023-05-08T09:39:32.683Z,99957.61
2023-05-08T09:42:25.296Z,99957.93
2023-05-08T09:45:30.261Z,99952.91
2023-05-08T09:48:42.538Z,99950.73
2023-05-08T09:51:34.633Z,99956.25
2023-05-08T09:54:26.712Z,99951.45
2023-05-08T09:57:18.721Z,99952.48
2023-05-08T10:00:14.022Z,99955.91
2023-05-08T10:03:06.499Z,99954.27
2023-05-08T10:05:41.086Z,99953.48
2023-05-08T10:08:33.066Z,99950.98
2023-05-08T10:11:25.022Z,99951.02
2023-05-08T10:14:16.988Z,99945.72
2023-05-08T10:17:12.964Z,99949.63
2023-05-08T10:20:09.500Z,99950.21
2023-05-08T10:23:02.414Z,99951.84
2023-05-08T10:25:57.469Z,99945.20
2023-05-08T10:28:58.090Z,99949.91
2023-05-08T10:31:55.341Z,99951.55
2023-05-08T10:34:51.059Z,99958.13
2023-05-08T10:37:44.256Z,99950.37
2023-05-08T10:40:36.321Z,99953.58
2023-05-08T10:43:30.247Z,99951.48
2023-05-08T10:46:30.374Z,99951.61
2023-05-08T10:49:32.744Z,99944.04
2023-05-08T10:52:31.416Z,99940.37
2023-05-08T10:55:30.551Z,99941.80
2023-05-08T10:58:34.460Z,99940.30
2023-05-08T11:01:27.410Z,99942.73
2023-05-08T11:04:26.085Z,99943.27
2023-05-08T11:07:56.613Z,99931.44
2023-05-08T11:11:05.343Z,99935.95
2023-05-08T11:14:10.896Z,99934.59
2023-05-08T11:17:12.359Z,99934.04
2023-05-08T11:20:06.992Z,99931.16
2023-05-08T11:23:18.966Z,99929.10
2023-05-08T11:26:16.517Z,99928.29
2023-05-08T11:29:18.495Z,99931.46
2023-05-08T11:32:10.606Z,99932.18
2023-05-08T11:35:02.747Z,99936.59
2023-05-08T11:38:15.499Z,99936.89
2023-05-08T11:41:08.993Z,99933.73
2023-05-08T11:44:21.951Z,99933.14
2023-05-08T11:47:19.825Z,99933.05
2023-05-08T11:50:14.277Z,99927.63
2023-05-08T11:53:06.770Z,99922.73
2023-05-08T11:55:59.278Z,99930.41
2023-05-08T11:59:02.476Z,99921.23
2023-05-08T12:04:32.321Z,99927.55
2023-05-08T12:07:24.465Z,99925.78
2023-05-08T12:10:17.623Z,99926.23
2023-05-08T12:13:19.816Z,99924.66
2023-05-08T12:16:14.102Z,99914.96
2023-05-08T12:19:10.055Z,99919.10
2023-05-08T12:22:02.811Z,99923.50
2023-05-08T12:24:54.879Z,99922.06
2023-05-08T12:27:36.810Z,99924.94
2023-05-08T12:30:28.947Z,99917.77
2023-05-08T12:33:21.345Z,99919.52
2023-05-08T12:36:13.348Z,99924.37
2023-05-08T12:38:45.354Z,99920.47
2023-05-08T12:41:43.724Z,99917.25
2023-05-08T12:44:35.802Z,99916.52
2023-05-08T12:47:28.046Z,99915.05
2023-05-08T12:50:22.225Z,99909.67
2023-05-08T12:53:16.137Z,99907.42
2023-05-08T12:56:08.804Z,99907.14
2023-05-08T12:59:02.766Z,99902.67
2023-05-08T13:01:54.835Z,99897.43
2023-05-08T13:04:47.700Z,99901.34
2023-05-08T13:07:39.826Z,99895.41
2023-05-08T13:10:46.195Z,99893.17
2023-05-08T13:13:24.173Z,99893.63
2023-05-08T13:16:16.350Z,99899.20
2023-05-08T13:19:08.378Z,99896.87
2023-05-08T13:22:00.322Z,99892.77
2023-05-08T13:24:52.294Z,99898.03
2023-05-08T13:27:44.302Z,99903.06
2023-05-08T13:30:37.017Z,99904.53
2023-05-08T13:33:29.015Z,99894.70
2023-05-08T13:36:21.436Z,99896.63
2023-05-08T13:39:13.528Z,99896.14
2023-05-08T13:42:05.756Z,99897.38
2023-05-08T13:44:57.740Z,99901.63
2023-05-08T13:47:51.000Z,99901.70
2023-05-08T13:50:43.077Z,99907.46
2023-05-08T13:53:35.135Z,99905.76
2023-05-08T14:19:04.798Z,99877.55
2023-05-08T14:21:56.809Z,99879.90
2023-05-08T14:24:48.856Z,99875.55
2023-05-08T14:27:40.858Z,99881.13
2023-05-08T14:30:32.820Z,99884.73
2023-05-08T14:33:24.906Z,99885.26
2023-05-08T14:36:17.094Z,99879.44
2023-05-08T14:39:09.751Z,99884.66
2023-05-08T14:44:58.887Z,99885.78
2023-05-08T14:47:51.072Z,99890.88
2023-05-08T14:50:43.226Z,99892.20
2023-05-08T14:53:35.370Z,99893.81
2023-05-08T14:56:28.923Z,99890.86
2023-05-08T14:59:20.483Z,99893.27
2023-05-08T15:02:08.844Z,99891.59
2023-05-08T15:05:01.080Z,99894.34
2023-05-08T15:07:53.196Z,99894.59
2023-05-08T15:10:45.219Z,99890.95
2023-05-08T15:13:37.287Z,99894.60
2023-05-08T15:16:29.321Z,99888.89
2023-05-08T15:19:21.312Z,99891.83
2023-05-08T15:22:13.302Z,99889.50
2023-05-08T15:25:05.875Z,99888.89
2023-05-08T15:28:00.725Z,99888.38
2023-05-08T15:30:53.259Z,99883.05
2023-05-08T15:33:46.036Z,99888.11
2023-05-08T15:36:38.149Z,99882.92
2023-05-08T15:39:30.629Z,99880.41
2023-05-08T15:42:23.008Z,99877.73
2023-05-08T15:45:16.141Z,99873.26
2023-05-08T15:48:08.876Z,99874.39
2023-05-08T15:51:00.910Z,99876.34
2023-05-08T15:53:52.973Z,99871.75
2023-05-08T15:56:47.237Z,99871.19
2023-05-08T15:59:38.201Z,99866.79
2023-05-08T16:02:30.243Z,99865.58
2023-05-08T16:05:22.565Z,99869.92
2023-05-08T16:08:14.538Z,99871.94
2023-05-08T16:11:06.590Z,99874.23
2023-05-08T16:13:58.920Z,99871.27
2023-05-08T16:16:50.868Z,99873.54
2023-05-08T16:19:42.827Z,99869.58
2023-05-08T16:22:34.765Z,99859.61
2023-05-08T16:25:11.051Z,99860.55
2023-05-08T16:28:03.439Z,99858.88
2023-05-08T16:30:55.420Z,99856.96
2023-05-08T16:33:47.476Z,99859.80
2023-05-08T16:36:39.593Z,99860.18
2023-05-08T16:39:31.636Z,99860.63
2023-05-08T16:42:23.620Z,99857.16
2023-05-08T16:45:15.881Z,99862.73
2023-05-08T16:48:08.082Z,99865.91
2023-05-08T16:51:00.208Z,99863.98
2023-05-08T16:53:52.182Z,99867.18
2023-05-08T16:56:39.310Z,99866.11
2023-05-08T16:59:32.180Z,99866.33
2023-05-08T17:02:24.205Z,99868.35
2023-05-08T17:05:05.165Z,99872.76
2023-05-08T17:07:57.180Z,99869.24
2023-05-08T17:10:41.285Z,99870.67
2023-05-08T17:13:33.334Z,99871.05
2023-05-08T17:16:25.377Z,99870.70
2023-05-08T17:19:17.348Z,99872.47
2023-05-08T17:22:09.217Z,99873.61
2023-05-08T17:25:01.160Z,99873.31
2023-05-08T17:27:53.194Z,99879.92
2023-05-08T17:30:46.376Z,99875.77
2023-05-08T17:33:38.500Z,99873.88
2023-05-08T17:36:30.519Z,99875.62
2023-05-08T17:39:22.766Z,99871.92
2023-05-08T17:42:14.722Z,99868.61
2023-05-08T17:45:08.046Z,99863.91
2023-05-08T17:48:00.252Z,99863.33
2023-05-08T17:50:52.248Z,99863.87
2023-05-08T17:53:44.533Z,99863.98
2023-05-08T17:56:36.675Z,99865.23
2023-05-08T17:59:28.701Z,99866.23
2023-05-08T18:02:20.715Z,99872.54
2023-05-08T18:05:12.930Z,99873.14
2023-05-08T18:08:04.999Z,99873.02
2023-05-08T18:10:57.081Z,99872.15
2023-05-08T18:13:49.778Z,99876.35
2023-05-08T18:16:41.762Z,99878.75
2023-05-08T18:19:33.970Z,99881.09
2023-05-08T18:22:26.251Z,99880.34
2023-05-08T18:25:18.303Z,99886.66
2023-05-08T18:28:10.416Z,99885.38
2023-05-08T18:31:02.467Z,99888.64
2023-05-08T18:33:54.547Z,99888.55
2023-05-08T18:36:46.846Z,99886.05
2023-05-08T18:39:38.876Z,99885.64
2023-05-08T18:42:30.880Z,99890.17
2023-05-08T18:45:23.436Z,99896.98
2023-05-08T18:48:15.386Z,99899.20
2023-05-08T18:51:07.534Z,99898.45
2023-05-08T18:54:00.148Z,99903.23
2023-05-08T18:56:35.120Z,99905.56
2023-05-08T18:59:27.203Z,99912.20
2023-05-08T19:02:04.341Z,99910.69
2023-05-08T19:04:56.394Z,99909.80
2023-05-08T19:07:48.379Z,99909.59
2023-05-08T19:10:41.003Z,99907.16
2023-05-08T19:13:33.206Z,99906.86
2023-05-08T19:16:25.401Z,99908.29
2023-05-08T19:19:17.574Z,99908.50
2023-05-08T19:22:10.164Z,99905.95
2023-05-08T19:25:02.102Z,99907.40
2023-05-08T19:27:36.873Z,99901.39
2023-05-08T19:30:28.857Z,99900.80
2023-05-08T19:33:21.030Z,99901.31
2023-05-08T19:36:13.076Z,99902.05
2023-05-08T19:39:05.142Z,99901.59
2023-05-08T19:41:57.439Z,99905.35
2023-05-08T19:44:49.690Z,99899.56
2023-05-08T19:47:41.714Z,99897.73
2023-05-08T19:50:33.683Z,99895.83
2023-05-08T19:53:25.681Z,99895.13
2023-05-08T19:56:17.831Z,99897.27
2023-05-08T19:59:09.800Z,99897.23
2023-05-08T20:02:01.776Z,99901.79
2023-05-08T20:05:04.266Z,99897.85
2023-05-08T20:07:54.618Z,99896.85
2023-05-08T20:10:31.575Z,99888.70
2023-05-08T20:13:23.674Z,99889.85
2023-05-08T20:16:16.062Z,99890.64
2023-05-08T20:19:08.291Z,99884.41
2023-05-08T20:22:00.336Z,99884.13
2023-05-08T20:24:52.320Z,99883.52
2023-05-08T20:27:44.302Z,99883.42
2023-05-08T20:30:36.352Z,99879.10
2023-05-08T20:33:28.489Z,99879.98
2023-05-08T20:36:20.515Z,99879.83
2023-05-08T20:39:12.837Z,99878.61
2023-05-08T20:42:05.084Z,99878.20
2023-05-08T20:44:57.003Z,99881.58
2023-05-08T20:47:48.974Z,99880.19
2023-05-08T20:50:41.062Z,99880.27
2023-05-08T20:53:33.079Z,99878.36
2023-05-08T20:56:25.077Z,99873.55
2023-05-08T20:59:18.742Z,99874.91
2023-05-08T21:02:11.639Z,99874.16
2023-05-08T21:05:03.842Z,99871.65
2023-05-08T21:07:59.927Z,99865.87
2023-05-08T21:10:53.024Z,99865.92
2023-05-08T21:13:49.170Z,99862.95
2023-05-08T21:16:41.257Z,99865.38
2023-05-08T21:19:18.257Z,99861.13
2023-05-08T21:22:10.439Z,99866.16
2023-05-08T21:25:02.396Z,99866.48
2023-05-08T21:27:55.370Z,99865.88
2023-05-08T21:30:47.856Z,99866.84
2023-05-08T21:33:39.835Z,99864.15
2023-05-08T21:36:32.136Z,99864.89
2023-05-08T21:39:24.093Z,99863.48
2023-05-08T21:42:16.067Z,99866.26
2023-05-08T21:45:09.335Z,99862.77
2023-05-08T21:48:01.569Z,99858.19
2023-05-08T21:50:53.534Z,99860.66
2023-05-08T21:53:45.513Z,99855.77
2023-05-08T21:56:37.548Z,99857.02
2023-05-08T21:59:29.484Z,99849.91
2023-05-08T22:02:21.613Z,99853.02
2023-05-08T22:05:14.489Z,99852.23
2023-05-08T22:08:07.261Z,99850.27
2023-05-08T22:10:59.278Z,99850.52
2023-05-08T22:13:51.231Z,99848.05
2023-05-08T22:16:43.338Z,99849.19
2023-05-08T22:19:35.415Z,99845.63
2023-05-08T22:22:27.540Z,99841.69
2023-05-08T22:25:21.579Z,99839.60
2023-05-08T22:28:13.623Z,99836.42
2023-05-08T22:31:06.876Z,99835.55
2023-05-08T22:33:59.722Z,99833.81
2023-05-08T22:36:51.664Z,99833.02
2023-05-08T22:39:43.784Z,99834.32
2023-05-08T22:42:35.977Z,99830.04
2023-05-08T22:45:28.375Z,99824.32
2023-05-08T22:48:21.518Z,99826.27
2023-05-08T22:50:53.455Z,99828.77
2023-05-08T22:53:45.812Z,99824.64
2023-05-08T22:56:38.215Z,99827.11
2023-05-08T22:59:30.272Z,99825.75
2023-05-08T23:02:22.356Z,99826.91
2023-05-08T23:05:14.495Z,99825.52
2023-05-08T23:08:07.161Z,99827.17
2023-05-08T23:10:59.124Z,99823.42
2023-05-08T23:13:51.085Z,99823.90
2023-05-08T23:16:43.118Z,99823.73
2023-05-08T23:19:35.115Z,99820.48
2023-05-08T23:22:28.570Z,99818.53
2023-05-08T23:25:20.706Z,99818.20
2023-05-08T23:28:12.695Z,99813.39
2023-05-08T23:31:05.045Z,99812.24
2023-05-08T23:33:57.214Z,99811.14
2023-05-08T23:36:49.203Z,99814.42
2023-05-08T23:39:42.008Z,99810.16
2023-05-08T23:42:33.889Z,99810.39
2023-05-08T23:45:25.898Z,99807.52
2023-05-08T23:48:17.902Z,99807.03
2023-05-08T23:51:10.024Z,99806.44
2023-05-08T23:54:02.178Z,99806.57
2023-05-08T23:56:54.129Z,99808.52
2023-05-08T23:59:46.059Z,99801.13
